Time;durP1;ratioP1;P1;durP2;ratioP2;P2;SDS_P1;SDS_P2;PMS_P1;PMS_P2;Temp;Humidity;BMP_temperature;BMP_pressure;BME280_temperature;BME280_humidity;BME280_pressure;Samples;Min_cycle;Max_cycle;Signal;HPM_P1;HPM_P2
2022/03/18 00:00:16;;;;;;;10.43;5.60;;;;;;;2.99;67.69;103819.31;5014782;28;20104;-57
2022/03/18 00:02:41;;;;;;;12.32;6.40;;;;;;;2.95;67.98;103816.66;5016320;28;20030;-58
2022/03/18 00:05:07;;;;;;;11.18;5.50;;;;;;;2.93;68.01;103823.69;5016092;28;20032;-58
2022/03/18 00:07:32;;;;;;;12.27;6.00;;;;;;;2.91;68.19;103827.16;5016214;28;20412;-58
2022/03/18 00:09:58;;;;;;;9.98;5.63;;;;;;;2.87;68.03;103828.91;5015886;28;20472;-58
2022/03/18 00:12:23;;;;;;;12.00;5.88;;;;;;;2.78;68.55;103829.75;5015887;28;20528;-58
2022/03/18 00:14:48;;;;;;;8.15;5.32;;;;;;;2.74;68.28;103842.84;5015836;28;20110;-57
2022/03/18 00:17:13;;;;;;;11.10;5.40;;;;;;;2.65;68.31;103841.06;5015886;28;20034;-59
2022/03/18 00:19:39;;;;;;;8.93;5.55;;;;;;;2.62;68.36;103840.16;5015769;28;20066;-58
2022/03/18 00:22:06;;;;;;;7.97;5.45;;;;;;;2.54;68.86;103837.50;5015918;28;20018;-58
2022/03/18 00:24:32;;;;;;;11.25;5.70;;;;;;;2.49;69.01;103844.47;5027753;28;20084;-58
2022/03/18 00:27:02;;;;;;;10.55;5.10;;;;;;;2.44;68.84;103843.56;5015409;28;20304;-58
2022/03/18 00:29:28;;;;;;;12.30;5.32;;;;;;;2.36;68.77;103841.75;5015778;28;20030;-58
2022/03/18 00:31:53;;;;;;;9.15;5.68;;;;;;;2.35;69.45;103839.16;5015657;28;20033;-58
2022/03/18 00:34:19;;;;;;;12.35;5.35;;;;;;;2.30;69.33;103822.47;5015547;28;20129;-58
2022/03/18 00:36:44;;;;;;;13.52;5.82;;;;;;;2.22;69.25;103831.19;5015346;28;20400;-58
2022/03/18 00:39:10;;;;;;;12.88;6.53;;;;;;;2.22;69.55;103843.44;5014404;28;20030;-58
2022/03/18 00:41:35;;;;;;;10.60;6.13;;;;;;;2.22;69.59;103841.66;5015531;28;20038;-58
2022/03/18 00:44:01;;;;;;;9.63;5.82;;;;;;;2.20;69.77;103839.91;5014943;28;20030;-58
2022/03/18 00:46:26;;;;;;;12.20;6.13;;;;;;;2.18;69.20;103842.53;5015429;28;20036;-58
2022/03/18 00:54:20;;;;;;;13.38;6.53;;;;;;;2.18;69.58;103858.25;5015221;28;20050;-58
2022/03/18 00:56:46;;;;;;;13.90;8.05;;;;;;;2.16;69.32;103857.34;5015256;28;20464;-58
2022/03/18 00:59:11;;;;;;;32.17;20.83;;;;;;;2.14;69.40;103859.09;5015037;28;20037;-58
2022/03/18 01:01:36;;;;;;;28.33;15.23;;;;;;;2.12;69.07;103865.22;5015057;28;20026;-59
2022/03/18 01:04:02;;;;;;;22.23;11.32;;;;;;;2.08;69.08;103868.66;5014744;28;20084;-59
2022/03/18 01:06:28;;;;;;;18.73;10.27;;;;;;;2.04;69.02;103867.75;5015061;28;20077;-59
2022/03/18 01:08:53;;;;;;;19.77;9.73;;;;;;;1.97;69.47;103872.06;5014798;28;20026;-58
2022/03/18 01:11:19;;;;;;;15.63;7.57;;;;;;;1.92;69.49;103871.16;5014996;28;20030;-59
2022/03/18 01:13:44;;;;;;;17.70;7.30;;;;;;;1.87;69.80;103878.09;5014955;28;20045;-59
2022/03/18 01:16:09;;;;;;;9.60;6.43;;;;;;;1.82;69.67;103878.06;5015034;28;20018;-59
2022/03/18 01:18:35;;;;;;;14.15;6.95;;;;;;;1.77;69.92;103873.66;5014787;28;20057;-59
2022/03/18 01:21:00;;;;;;;10.00;5.97;;;;;;;1.75;69.93;103875.34;5014540;28;20030;-58
2022/03/18 01:23:25;;;;;;;13.02;6.40;;;;;;;1.72;70.62;103878.84;5014254;28;20041;-59
2022/03/18 01:25:51;;;;;;;12.65;6.25;;;;;;;1.67;70.64;103878.78;5014719;28;20469;-59
2022/03/18 01:28:16;;;;;;;14.18;6.70;;;;;;;1.61;70.88;103872.63;5014466;28;20084;-59
2022/03/18 01:30:41;;;;;;;12.90;6.72;;;;;;;1.59;70.49;103874.34;5014484;28;20018;-58
2022/03/18 01:33:07;;;;;;;9.13;6.15;;;;;;;1.54;70.51;103870.81;5014435;28;20026;-59
2022/03/18 01:35:32;;;;;;;13.07;6.15;;;;;;;1.54;71.13;103870.81;5014489;28;20026;-59
2022/03/18 01:37:57;;;;;;;13.73;6.43;;;;;;;1.51;71.62;103869.03;5014222;28;20137;-58
2022/03/18 01:40:23;;;;;;;13.07;6.95;;;;;;;1.49;71.34;103870.75;5014277;28;20025;-57
2022/03/18 01:42:48;;;;;;;17.15;7.57;;;;;;;1.41;71.22;103857.56;5014272;28;20026;-58
2022/03/18 01:45:13;;;;;;;13.48;6.82;;;;;;;1.45;71.55;103875.09;5014080;28;20034;-58
2022/03/18 01:47:42;;;;;;;13.68;6.65;;;;;;;1.42;71.44;103875.06;5014078;28;20052;-58
2022/03/18 01:50:13;;;;;;;12.38;6.57;;;;;;;1.40;71.43;103873.25;5014035;28;20029;-59
2022/03/18 01:52:38;;;;;;;14.65;6.38;;;;;;;1.36;71.72;103876.72;5013846;28;20395;-59
2022/03/18 01:55:04;;;;;;;10.02;6.00;;;;;;;1.34;71.41;103879.31;5014019;28;20113;-59
2022/03/18 01:57:30;;;;;;;12.85;6.50;;;;;;;1.31;71.90;103887.16;5014024;28;20038;-57
2022/03/18 01:59:56;;;;;;;10.20;6.45;;;;;;;1.27;72.03;103875.75;5013131;28;20034;-58
2022/03/18 02:02:21;;;;;;;11.52;6.47;;;;;;;1.24;71.82;103873.09;5014016;28;20030;-58
2022/03/18 02:04:47;;;;;;;10.85;6.68;;;;;;;1.24;71.64;103880.09;5013661;28;20021;-58
2022/03/18 02:07:13;;;;;;;15.25;7.22;;;;;;;1.22;71.38;103879.19;5013581;28;20022;-58
2022/03/18 02:09:40;;;;;;;13.13;6.82;;;;;;;1.22;71.90;103885.31;5013809;28;20025;-58
2022/03/18 02:12:07;;;;;;;12.27;7.10;;;;;;;1.23;72.27;103889.69;5014093;28;20444;-58
2022/03/18 02:14:41;;;;;;;13.02;7.40;;;;;;;1.22;72.20;103892.28;5013704;28;20089;-59
2022/03/18 02:17:08;;;;;;;16.20;7.47;;;;;;;1.22;71.79;103893.16;5013392;28;20026;-59
2022/03/18 02:19:36;;;;;;;15.73;7.38;;;;;;;1.21;71.86;103898.38;5013538;28;20049;-58
2022/03/18 02:22:05;;;;;;;13.48;7.50;;;;;;;1.17;72.04;103889.63;5013353;28;20030;-58
2022/03/18 02:24:31;;;;;;;12.63;7.38;;;;;;;1.12;72.30;103893.91;5013708;28;20030;-58
2022/03/18 02:26:56;;;;;;;14.52;7.72;;;;;;;1.07;72.57;103900.84;5013277;28;20053;-59
2022/03/18 02:29:23;;;;;;;10.95;7.10;;;;;;;1.06;72.97;103904.31;5013341;28;20053;-58
2022/03/18 02:31:49;;;;;;;11.18;6.72;;;;;;;1.02;72.86;103892.06;5013703;28;20388;-58
2022/03/18 02:34:14;;;;;;;12.40;6.68;;;;;;;1.00;72.43;103889.41;5013396;28;20034;-59
2022/03/18 02:36:40;;;;;;;10.77;6.50;;;;;;;0.99;72.75;103892.88;5013324;28;20040;-58
2022/03/18 02:39:05;;;;;;;13.95;6.60;;;;;;;0.99;72.82;103908.59;5013199;28;20032;-58
2022/03/18 02:41:32;;;;;;;10.98;6.55;;;;;;;0.99;72.54;103910.34;5013438;28;20037;-58
2022/03/18 02:43:58;;;;;;;9.55;6.07;;;;;;;0.99;73.26;103910.34;5013216;28;20030;-59
2022/03/18 02:46:23;;;;;;;11.90;6.88;;;;;;;0.94;72.90;103910.25;5013231;28;20034;-58
2022/03/18 02:48:48;;;;;;;16.30;6.63;;;;;;;0.94;73.11;103904.16;5013145;28;20113;-59
2022/03/18 02:51:14;;;;;;;9.55;6.95;;;;;;;0.92;73.15;103909.38;5013039;28;20033;-59
2022/03/18 02:53:39;;;;;;;13.40;6.47;;;;;;;0.90;73.50;103913.72;5013134;28;20030;-57
2022/03/18 02:56:05;;;;;;;11.00;6.55;;;;;;;0.88;73.43;103907.56;5013035;28;20056;-58
2022/03/18 02:58:30;;;;;;;10.20;6.60;;;;;;;0.88;72.96;103908.47;5013229;28;20034;-58
2022/03/18 03:00:56;;;;;;;11.57;6.18;;;;;;;0.84;73.27;103909.25;5012938;28;20432;-58
2022/03/18 03:03:21;;;;;;;13.07;6.70;;;;;;;0.86;72.74;103928.47;5012817;28;20130;-58
2022/03/18 03:08:31;;;;;;;12.00;6.43;;;;;;;0.80;73.18;103924.88;5012951;28;20041;-58
2022/03/18 03:10:57;;;;;;;14.85;7.47;;;;;;;0.77;73.58;103933.59;5012851;28;20115;-58
2022/03/18 03:13:23;;;;;;;11.02;6.45;;;;;;;0.74;73.29;103937.03;5012934;28;20112;-58
2022/03/18 03:15:49;;;;;;;9.18;6.10;;;;;;;0.74;73.01;103936.16;5012668;28;20065;-58
2022/03/18 03:18:14;;;;;;;14.40;7.32;;;;;;;0.73;73.47;103937.00;5012869;28;20037;-59
2022/03/18 03:20:39;;;;;;;11.80;6.68;;;;;;;0.69;73.51;103936.09;5012689;28;20037;-59
2022/03/18 03:23:05;;;;;;;16.33;7.00;;;;;;;0.65;73.85;103934.28;5012647;28;20041;-58
2022/03/18 03:25:30;;;;;;;12.60;6.55;;;;;;;0.59;73.20;103935.94;5012638;28;20061;-58
2022/03/18 03:27:55;;;;;;;13.02;6.57;;;;;;;0.56;73.06;103934.13;5012913;28;20080;-58
2022/03/18 03:30:22;;;;;;;12.43;6.60;;;;;;;0.55;73.49;103948.97;5012653;28;20041;-58
2022/03/18 03:32:48;;;;;;;10.85;6.82;;;;;;;0.51;73.22;103951.50;5012794;28;20026;-58
2022/03/18 03:35:15;;;;;;;10.98;7.15;;;;;;;0.47;74.15;103955.81;5012575;28;20034;-58
2022/03/18 03:37:41;;;;;;;10.40;6.60;;;;;;;0.47;73.95;103944.47;5012828;28;20033;-59
2022/03/18 03:40:06;;;;;;;10.70;6.88;;;;;;;0.46;73.11;103940.97;5012613;28;20022;-58
2022/03/18 03:42:32;;;;;;;9.93;6.50;;;;;;;0.48;73.88;103954.06;5011311;28;20071;-58
2022/03/18 03:44:57;;;;;;;11.63;6.97;;;;;;;0.49;73.95;103958.44;5012421;28;20049;-59
2022/03/18 03:47:22;;;;;;;10.98;6.63;;;;;;;0.47;73.52;103960.16;5023179;28;20044;-59
2022/03/18 03:49:47;;;;;;;13.60;6.88;;;;;;;0.47;73.75;103968.00;5032039;28;20056;-58
2022/03/18 03:52:14;;;;;;;12.82;6.75;;;;;;;0.42;73.98;103967.03;5017384;28;20141;-58
2022/03/18 03:54:42;;;;;;;12.05;6.68;;;;;;;0.39;74.58;103965.25;5012344;28;20469;-58
2022/03/18 03:57:08;;;;;;;12.25;6.95;;;;;;;0.34;73.56;103966.94;5012472;28;20029;-57
2022/03/18 03:59:34;;;;;;;11.77;6.95;;;;;;;0.33;73.98;103962.53;5012288;28;20499;-59
2022/03/18 04:01:59;;;;;;;9.00;6.97;;;;;;;0.32;74.21;103974.75;5012637;28;20065;-58
2022/03/18 04:04:26;;;;;;;14.30;6.53;;;;;;;0.32;74.67;103976.47;5012397;28;20018;-58
2022/03/18 04:06:51;;;;;;;12.75;6.50;;;;;;;0.31;74.40;103991.25;5012265;28;20033;-57
2022/03/18 04:09:17;;;;;;;11.07;6.57;;;;;;;0.32;74.18;103998.28;5012438;28;20022;-57
2022/03/18 04:11:42;;;;;;;12.57;6.78;;;;;;;0.31;74.32;103991.25;5012310;28;20113;-58
2022/03/18 04:14:07;;;;;;;15.52;7.60;;;;;;;0.26;74.36;103987.69;5012278;28;20465;-58
2022/03/18 04:16:34;;;;;;;12.32;7.03;;;;;;;0.25;74.28;103991.19;5012137;28;20029;-58
2022/03/18 04:18:59;;;;;;;11.95;6.95;;;;;;;0.25;73.82;104001.66;5012530;28;20069;-58
2022/03/18 04:21:25;;;;;;;10.80;7.32;;;;;;;0.23;74.09;104005.06;5012312;28;20453;-58
2022/03/18 04:23:50;;;;;;;10.68;6.75;;;;;;;0.20;74.48;104005.00;5013625;28;20033;-59
2022/03/18 04:26:15;;;;;;;10.15;6.78;;;;;;;0.17;74.75;104004.09;5015551;28;20427;-58
2022/03/18 04:28:40;;;;;;;12.00;7.20;;;;;;;0.16;74.35;104014.53;5015495;28;20054;-59
2022/03/18 04:31:06;;;;;;;11.15;6.80;;;;;;;0.11;74.78;104014.44;5015700;28;20103;-58
2022/03/18 04:33:31;;;;;;;11.05;7.15;;;;;;;0.11;74.85;104014.44;5015581;28;20040;-59
2022/03/18 04:35:56;;;;;;;12.23;7.22;;;;;;;0.09;74.76;104024.00;5015532;28;20034;-58
2022/03/18 04:38:21;;;;;;;12.82;7.18;;;;;;;0.08;74.80;104019.59;5015657;28;20076;-59
2022/03/18 04:40:47;;;;;;;13.93;7.35;;;;;;;0.08;74.27;104030.06;5015563;28;20034;-59
2022/03/18 04:43:12;;;;;;;13.10;7.72;;;;;;;0.08;74.82;104029.19;5015219;28;20515;-59
2022/03/18 04:45:37;;;;;;;15.80;7.32;;;;;;;0.05;75.48;104022.19;5015440;28;20029;-59
2022/03/18 04:48:03;;;;;;;13.15;7.03;;;;;;;0.04;74.87;104022.16;5015406;28;20034;-58
2022/03/18 04:50:29;;;;;;;14.73;7.07;;;;;;;0.02;74.81;104022.13;5015100;28;20076;-58
2022/03/18 04:52:55;;;;;;;12.57;6.55;;;;;;;-0.01;75.30;104022.06;5015321;28;20026;-58
2022/03/18 04:55:20;;;;;;;16.58;7.00;;;;;;;-0.02;75.48;104025.53;5015265;28;20542;-58
2022/03/18 04:57:46;;;;;;;15.23;7.82;;;;;;;-0.02;75.15;104033.34;5015003;28;20033;-58
2022/03/18 05:00:12;;;;;;;11.27;6.78;;;;;;;-0.04;75.42;104032.47;5015420;28;20026;-59
2022/03/18 05:02:37;;;;;;;15.75;7.15;;;;;;;-0.08;75.06;104033.25;5015035;28;20116;-58
2022/03/18 05:05:05;;;;;;;13.45;7.00;;;;;;;-0.08;74.87;104030.66;5015037;28;20104;-58
2022/03/18 05:07:30;;;;;;;13.65;7.13;;;;;;;-0.10;74.69;104037.56;5014818;28;20038;-59
2022/03/18 05:09:56;;;;;;;18.75;7.35;;;;;;;-0.09;75.00;104032.34;5015186;28;20508;-59
2022/03/18 05:12:22;;;;;;;16.08;7.57;;;;;;;-0.11;75.35;104049.75;5014831;28;20476;-59
2022/03/18 05:14:48;;;;;;;15.43;7.88;;;;;;;-0.13;76.21;104050.56;5014862;28;20034;-58
2022/03/18 05:17:13;;;;;;;16.20;7.10;;;;;;;-0.15;75.70;104063.63;5014931;28;20028;-59
2022/03/18 05:19:39;;;;;;;19.58;7.32;;;;;;;-0.17;75.43;104057.44;5014652;28;20037;-58
2022/03/18 05:22:08;;;;;;;10.85;7.13;;;;;;;-0.21;76.11;104060.88;5014662;28;20392;-58
2022/03/18 05:24:35;;;;;;;9.52;6.85;;;;;;;-0.24;76.48;104059.06;5019937;28;20072;-59
2022/03/18 05:27:00;;;;;;;10.48;6.93;;;;;;;-0.25;76.10;104062.53;5014250;28;20084;-59
2022/03/18 05:29:26;;;;;;;10.85;7.45;;;;;;;-0.24;75.36;104073.88;5014131;28;20491;-58
2022/03/18 05:31:51;;;;;;;12.73;7.00;;;;;;;-0.26;75.93;104059.91;5014595;28;20107;-58
2022/03/18 05:34:17;;;;;;;17.63;7.40;;;;;;;-0.27;75.44;104069.44;5014295;28;20025;-59
2022/03/18 05:36:43;;;;;;;13.73;7.30;;;;;;;-0.25;76.18;104066.84;5014544;28;20033;-59
2022/03/18 05:39:09;;;;;;;12.65;6.93;;;;;;;-0.24;75.82;104077.34;5014109;28;20026;-59
2022/03/18 05:41:34;;;;;;;14.05;7.32;;;;;;;-0.24;75.64;104068.63;5013668;28;20040;-58
2022/03/18 05:44:00;;;;;;;15.10;8.05;;;;;;;-0.25;75.80;104077.31;5013696;28;20037;-58
2022/03/18 05:46:25;;;;;;;12.98;6.68;;;;;;;-0.24;75.58;104073.88;5014016;28;20029;-58
2022/03/18 05:48:50;;;;;;;11.68;6.95;;;;;;;-0.24;75.36;104066.03;5014005;28;20022;-59
2022/03/18 05:51:16;;;;;;;16.85;8.05;;;;;;;-0.25;76.03;104069.47;5014040;28;20030;-58
2022/03/18 05:53:41;;;;;;;13.75;7.47;;;;;;;-0.27;76.39;104074.66;5014137;28;20077;-59
2022/03/18 05:58:51;;;;;;;15.95;7.85;;;;;;;-0.29;76.47;104068.53;5014222;28;20121;-59
2022/03/18 06:01:16;;;;;;;12.68;7.18;;;;;;;-0.28;76.11;104074.66;5013787;28;20117;-58
2022/03/18 06:03:42;;;;;;;14.82;7.80;;;;;;;-0.27;76.73;104084.25;5012626;28;20040;-59
2022/03/18 06:06:07;;;;;;;13.82;8.23;;;;;;;-0.26;76.67;104091.25;5013988;28;20472;-58
2022/03/18 06:14:01;;;;;;;13.00;7.47;;;;;;;-0.23;76.99;104094.78;5014100;28;20403;-59
2022/03/18 06:16:26;;;;;;;16.55;8.30;;;;;;;-0.24;77.73;104098.25;5013417;28;20025;-58
2022/03/18 06:18:52;;;;;;;12.40;7.88;;;;;;;-0.22;77.42;104107.03;5013704;28;20025;-59
2022/03/18 06:21:17;;;;;;;16.20;8.43;;;;;;;-0.20;77.61;104104.41;5013464;28;20528;-59
2022/03/18 06:23:43;;;;;;;12.27;7.32;;;;;;;-0.19;77.41;104107.06;5013393;28;20109;-59
2022/03/18 06:26:08;;;;;;;10.65;7.07;;;;;;;-0.16;77.18;104113.22;5013574;28;20053;-58
2022/03/18 06:28:34;;;;;;;12.23;7.20;;;;;;;-0.15;76.74;104123.72;5013171;28;20049;-58
2022/03/18 06:30:59;;;;;;;15.02;8.57;;;;;;;-0.13;77.53;104124.59;5013202;28;20037;-59
2022/03/18 06:33:27;;;;;;;12.85;7.68;;;;;;;-0.09;77.01;104125.56;5013070;28;20053;-59
2022/03/18 06:35:52;;;;;;;13.35;7.57;;;;;;;-0.10;77.61;104115.94;5013166;28;20037;-58
2022/03/18 06:38:17;;;;;;;14.50;7.55;;;;;;;-0.07;77.84;104123.84;5013159;28;20033;-58
2022/03/18 06:40:42;;;;;;;17.20;7.95;;;;;;;-0.06;77.34;104115.16;5013192;28;20056;-58
2022/03/18 06:43:08;;;;;;;18.25;8.48;;;;;;;-0.04;78.37;104123.91;5012884;28;20048;-58
2022/03/18 06:45:33;;;;;;;20.45;8.35;;;;;;;-0.03;78.36;104126.56;5012850;28;20034;-59
2022/03/18 06:47:58;;;;;;;16.02;8.27;;;;;;;0.01;78.30;104132.72;5012908;28;20112;-58
2022/03/18 06:50:24;;;;;;;12.07;8.35;;;;;;;0.04;79.25;104138.03;5018791;28;20392;-58
2022/03/18 06:52:50;;;;;;;15.45;8.35;;;;;;;0.05;78.47;104145.03;5032872;28;20032;-58
2022/03/18 06:55:15;;;;;;;11.35;7.80;;;;;;;0.09;78.62;104139.00;5027018;28;20041;-59
2022/03/18 06:57:42;;;;;;;15.10;7.95;;;;;;;0.14;79.01;104142.59;5032578;28;20087;-58
2022/03/18 07:00:08;;;;;;;12.70;8.27;;;;;;;0.18;78.89;104149.66;5032491;28;20041;-59
2022/03/18 07:02:33;;;;;;;15.93;8.27;;;;;;;0.23;78.31;104144.50;5014813;28;20040;-59
2022/03/18 07:04:59;;;;;;;13.57;8.43;;;;;;;0.28;78.83;104145.47;5012765;28;20473;-59
2022/03/18 07:07:24;;;;;;;19.85;8.85;;;;;;;0.34;79.26;104147.34;5023382;28;20523;-58
2022/03/18 07:09:49;;;;;;;15.10;8.68;;;;;;;0.39;79.58;104145.69;5025980;28;20032;-58
2022/03/18 07:12:15;;;;;;;20.80;10.23;;;;;;;0.49;81.11;104152.84;5012881;28;20477;-58
2022/03/18 07:14:40;;;;;;;15.18;9.15;;;;;;;0.57;80.92;104154.72;5011622;28;20088;-58
2022/03/18 07:19:51;;;;;;;17.67;10.27;;;;;;;0.75;81.59;104157.69;5031026;28;20388;-59
2022/03/18 07:22:16;;;;;;;15.93;10.93;;;;;;;0.86;82.13;104163.97;5031209;28;20029;-59
2022/03/18 07:24:42;;;;;;;28.05;12.45;;;;;;;1.03;83.08;104168.63;5029358;28;20025;-59
2022/03/18 07:27:07;;;;;;;18.25;11.50;;;;;;;1.22;84.34;104162.84;5031205;28;20104;-58
2022/03/18 07:29:32;;;;;;;20.05;11.73;;;;;;;1.38;83.44;104161.38;5016710;28;20029;-59
2022/03/18 07:31:58;;;;;;;18.58;11.00;;;;;;;1.50;84.06;104158.06;5014781;28;20121;-57
2022/03/18 07:34:24;;;;;;;20.20;11.13;;;;;;;1.68;84.68;104162.66;5031031;28;20021;-57
2022/03/18 07:36:50;;;;;;;23.30;11.95;;;;;;;1.88;84.66;104159.44;5026741;28;20076;-56
2022/03/18 07:39:16;;;;;;;20.13;11.55;;;;;;;2.04;84.06;104166.66;5012564;28;20107;-57
2022/03/18 07:41:42;;;;;;;25.40;11.05;;;;;;;2.23;84.74;104180.84;5012401;28;20084;-58
2022/03/18 07:44:07;;;;;;;24.88;10.50;;;;;;;2.45;84.45;104184.63;5012183;28;20452;-58
2022/03/18 07:46:32;;;;;;;24.90;10.90;;;;;;;2.69;84.02;104184.00;5012356;28;20508;-58
2022/03/18 07:48:58;;;;;;;20.50;9.18;;;;;;;2.95;82.86;104191.28;5014107;28;20030;-58
2022/03/18 07:51:24;;;;;;;21.23;9.75;;;;;;;3.24;82.70;104193.25;5031233;28;20506;-58
2022/03/18 07:53:49;;;;;;;19.30;9.63;;;;;;;3.58;81.42;104197.03;5027303;28;20116;-58
2022/03/18 07:56:14;;;;;;;22.88;9.50;;;;;;;3.85;80.89;104193.69;5028051;28;20161;-58
2022/03/18 07:58:40;;;;;;;17.42;8.57;;;;;;;4.18;79.43;104200.00;5017517;28;20476;-58
2022/03/18 08:01:05;;;;;;;16.50;8.52;;;;;;;4.52;78.57;104201.88;5016429;28;20041;-58
2022/03/18 08:03:31;;;;;;;19.60;8.32;;;;;;;4.78;76.84;104199.28;5021776;28;20053;-58
2022/03/18 08:05:56;;;;;;;19.13;7.93;;;;;;;5.10;76.54;104204.59;5035527;28;20075;-58
2022/03/18 08:08:21;;;;;;;17.55;7.47;;;;;;;5.37;75.03;104206.34;5020547;28;20041;-58
2022/03/18 08:10:47;;;;;;;20.25;7.60;;;;;;;5.67;73.53;104203.69;5015450;28;20033;-58
2022/03/18 08:13:12;;;;;;;11.52;6.95;;;;;;;5.92;72.99;104210.66;5015732;28;20034;-58
2022/03/18 08:15:39;;;;;;;21.17;8.20;;;;;;;6.20;72.66;104207.09;5013369;28;20075;-58
2022/03/18 08:18:05;;;;;;;15.15;7.82;;;;;;;6.45;71.08;104203.44;5015401;28;20059;-59
2022/03/18 08:20:30;;;;;;;18.67;7.07;;;;;;;6.75;69.93;104212.06;5014513;28;20026;-58
2022/03/18 08:22:56;;;;;;;17.35;7.43;;;;;;;6.99;68.40;104207.50;5014582;28;20050;-58
2022/03/18 08:25:21;;;;;;;18.25;7.65;;;;;;;7.19;67.34;104210.88;5014609;28;20063;-58
2022/03/18 08:27:48;;;;;;;22.83;7.78;;;;;;;7.51;66.97;104215.00;5014825;28;20061;-58
2022/03/18 08:30:14;;;;;;;16.73;6.63;;;;;;;7.80;66.56;104210.31;5015102;28;20456;-58
2022/03/18 08:32:40;;;;;;;16.00;6.22;;;;;;;8.04;64.88;104204.72;5015011;28;20163;-58
2022/03/18 08:35:07;;;;;;;16.13;6.05;;;;;;;8.39;63.70;104214.00;5014874;28;20481;-58
2022/03/18 08:40:16;;;;;;;16.00;5.57;;;;;;;8.99;61.42;104218.50;5015040;28;20057;-57
2022/03/18 08:42:41;;;;;;;12.82;6.15;;;;;;;9.24;60.47;104231.31;5015040;28;20477;-58
2022/03/18 08:45:08;;;;;;;19.63;5.28;;;;;;;9.53;59.55;104228.19;5014774;28;20025;-58
2022/03/18 08:47:33;;;;;;;15.52;5.88;;;;;;;9.62;57.85;104221.81;5014680;28;20049;-58
2022/03/18 08:49:58;;;;;;;16.15;5.45;;;;;;;9.86;58.17;104227.56;5015004;28;20033;-58
2022/03/18 08:52:24;;;;;;;13.70;4.93;;;;;;;10.15;56.42;104237.63;5014229;28;20033;-58
2022/03/18 08:54:49;;;;;;;10.52;5.25;;;;;;;10.45;57.39;104241.44;5013798;28;20061;-58
2022/03/18 08:57:15;;;;;;;16.17;5.63;;;;;;;10.60;53.90;104245.56;5013710;28;20038;-58
2022/03/18 08:59:40;;;;;;;13.85;4.90;;;;;;;10.77;53.26;104252.28;5013409;28;20097;-58
2022/03/18 09:02:05;;;;;;;7.88;4.80;;;;;;;11.04;53.23;104250.75;5018986;28;20054;-58
2022/03/18 09:04:31;;;;;;;15.10;5.10;;;;;;;11.35;53.50;104245.56;5027072;28;20036;-58
2022/03/18 09:06:56;;;;;;;11.25;5.47;;;;;;;11.57;52.31;104243.19;5025962;28;20496;-58
2022/03/18 09:09:21;;;;;;;12.55;5.75;;;;;;;11.68;50.53;104252.72;5030868;28;20490;-58
2022/03/18 09:11:46;;;;;;;10.02;4.57;;;;;;;11.90;49.69;104261.00;5033953;28;20116;-58
2022/03/18 09:14:12;;;;;;;9.27;4.20;;;;;;;11.97;47.70;104260.81;5027026;28;20054;-58
2022/03/18 09:16:38;;;;;;;10.98;4.53;;;;;;;12.08;46.82;104257.84;5018516;28;20029;-58
2022/03/18 09:19:07;;;;;;;10.55;4.35;;;;;;;12.29;46.78;104266.13;5014066;28;20036;-59
2022/03/18 09:21:33;;;;;;;8.25;4.40;;;;;;;12.52;46.81;104265.44;5013853;28;20112;-59
2022/03/18 09:23:58;;;;;;;10.50;4.78;;;;;;;12.84;47.46;104259.16;5014758;28;20213;-58
2022/03/18 09:26:24;;;;;;;11.32;4.22;;;;;;;13.04;46.25;104261.16;5014635;28;20054;-58
2022/03/18 09:28:49;;;;;;;10.73;3.85;;;;;;;13.10;44.30;104265.41;5014615;28;20041;-59
2022/03/18 09:31:15;;;;;;;8.40;3.60;;;;;;;13.26;45.74;104264.00;5014585;28;20041;-58
2022/03/18 09:33:43;;;;;;;8.77;3.80;;;;;;;13.47;44.46;104266.88;5029390;28;20041;-58
2022/03/18 09:36:10;;;;;;;6.97;3.80;;;;;;;13.56;43.38;104271.94;5030884;28;20075;-58
2022/03/18 09:38:36;;;;;;;9.40;3.20;;;;;;;13.60;42.50;104268.22;5032646;28;20031;-58
2022/03/18 09:41:02;;;;;;;10.15;3.83;;;;;;;13.68;42.90;104271.50;5033005;28;20091;-58
2022/03/18 09:43:38;;;;;;;12.18;4.47;;;;;;;13.95;43.61;104274.09;5030078;28;20033;-58
2022/03/18 09:46:05;;;;;;;9.73;4.13;;;;;;;14.02;43.01;104275.66;5033437;28;20029;-58
2022/03/18 09:48:31;;;;;;;9.55;4.20;;;;;;;14.26;42.29;104267.63;5026570;28;20049;-58
2022/03/18 09:50:57;;;;;;;8.68;3.63;;;;;;;14.47;41.02;104263.28;5014258;28;20026;-58
2022/03/18 09:53:22;;;;;;;10.15;3.63;;;;;;;14.53;40.22;104267.50;5019637;28;20025;-58
2022/03/18 09:55:51;;;;;;;7.67;3.60;;;;;;;14.70;40.32;104266.88;5033697;28;20045;-58
2022/03/18 09:58:17;;;;;;;9.32;3.78;;;;;;;14.84;38.95;104272.56;5023056;28;20292;-58
2022/03/18 10:00:42;;;;;;;5.13;2.85;;;;;;;14.87;38.86;104275.13;5033766;28;20048;-58
2022/03/18 10:03:19;;;;;;;4.93;3.00;;;;;;;15.03;40.42;104270.00;5033691;28;20025;-58
2022/03/18 10:05:59;;;;;;;7.88;2.53;;;;;;;15.15;37.59;104277.56;5024896;28;20431;-58
2022/03/18 10:08:33;;;;;;;7.85;2.97;;;;;;;15.32;38.60;104279.53;5014002;28;20038;-59
2022/03/18 10:10:58;;;;;;;5.65;2.65;;;;;;;15.47;37.08;104286.03;5013768;28;20069;-59
2022/03/18 10:13:23;;;;;;;9.40;2.70;;;;;;;15.62;36.19;104294.34;5013889;28;20034;-59
2022/03/18 10:15:49;;;;;;;8.30;2.90;;;;;;;15.55;35.63;104288.38;5024663;28;20288;-58
2022/03/18 10:18:16;;;;;;;11.73;2.85;;;;;;;15.63;36.46;104291.59;5021727;28;20050;-58
2022/03/18 10:20:43;;;;;;;5.32;2.42;;;;;;;15.62;36.03;104288.97;5013035;28;20037;-59
2022/03/18 10:23:14;;;;;;;4.30;2.75;;;;;;;15.91;37.24;104293.97;5014013;28;20535;-59
2022/03/18 10:26:01;;;;;;;9.50;2.72;;;;;;;15.85;35.47;104290.69;5013517;28;20041;-59
2022/03/18 10:28:37;;;;;;;9.48;3.25;;;;;;;16.06;36.82;104283.50;4994107;28;20049;-59
2022/03/18 10:31:14;;;;;;;8.45;3.10;;;;;;;15.99;37.18;104282.91;5031569;28;20025;-60
2022/03/18 10:37:12;;;;;;;7.65;2.70;;;;;;;16.33;37.61;104284.03;5027653;28;20123;-59
2022/03/18 10:39:42;;;;;;;5.85;2.50;;;;;;;16.18;35.44;104285.63;5012960;28;20080;-59
2022/03/18 10:42:10;;;;;;;5.72;2.55;;;;;;;16.40;35.94;104285.53;5013102;28;20121;-59
2022/03/18 10:44:42;;;;;;;8.77;2.95;;;;;;;16.43;36.61;104296.09;5012962;28;20392;-59
2022/03/18 10:47:07;;;;;;;6.88;2.72;;;;;;;16.53;35.44;104282.25;5012721;28;20503;-59
2022/03/18 10:49:32;;;;;;;6.25;2.50;;;;;;;16.53;34.55;104287.63;5028422;28;20025;-59
2022/03/18 10:52:09;;;;;;;6.60;2.58;;;;;;;16.56;35.64;104290.16;5032507;28;20028;-59
2022/03/18 10:54:34;;;;;;;7.80;2.80;;;;;;;16.68;34.53;104289.56;5032601;28;20523;-59
2022/03/18 10:57:00;;;;;;;6.45;2.50;;;;;;;16.78;34.65;104284.63;5022094;28;20033;-58
2022/03/18 10:59:27;;;;;;;5.28;2.40;;;;;;;16.84;34.18;104278.97;5027301;28;20033;-59
2022/03/18 11:01:53;;;;;;;6.35;2.50;;;;;;;16.79;33.68;104281.88;5031829;28;20060;-59
2022/03/18 11:04:22;;;;;;;5.82;2.97;;;;;;;16.76;34.45;104279.34;5032146;28;20036;-59
2022/03/18 11:11:07;;;;;;;10.00;2.80;;;;;;;16.99;34.02;104272.88;5026608;28;20129;-59
2022/03/18 11:12:24;;;;;;;7.38;2.55;;;;;;;16.99;33.46;104278.25;5031841;28;20049;-59
2022/03/18 11:14:54;;;;;;;9.60;2.65;;;;;;;17.07;33.73;104271.63;5031425;28;20030;-59
2022/03/18 11:17:21;;;;;;;8.43;2.95;;;;;;;17.03;33.78;104281.63;5021802;28;20049;-59
2022/03/18 11:19:47;;;;;;;5.50;2.78;;;;;;;17.15;34.81;104274.78;5032172;28;20476;-59
2022/03/18 11:22:15;;;;;;;10.88;2.67;;;;;;;17.16;33.71;104266.66;5029710;28;20105;-59
2022/03/18 11:24:41;;;;;;;10.35;3.15;;;;;;;17.12;33.18;104273.16;5012233;28;20084;-59
2022/03/18 11:27:07;;;;;;;5.25;2.40;;;;;;;17.14;33.52;104270.38;5018349;28;20067;-59
2022/03/18 11:29:34;;;;;;;9.07;2.83;;;;;;;17.23;34.20;104266.34;5024801;28;20033;-59
2022/03/18 11:32:12;;;;;;;5.93;2.65;;;;;;;17.47;35.11;104277.66;5025022;28;20111;-59
2022/03/18 11:34:56;;;;;;;5.33;2.97;;;;;;;17.66;34.89;104266.84;5030128;28;20029;-58
2022/03/18 11:37:21;;;;;;;7.60;2.95;;;;;;;17.86;33.86;104269.31;5035479;28;20033;-59
2022/03/18 11:39:47;;;;;;;12.23;3.40;;;;;;;17.93;33.90;104273.44;5027949;28;20036;-59
2022/03/18 11:42:20;;;;;;;5.88;2.90;;;;;;;17.89;33.50;104268.34;5023223;28;20067;-59
2022/03/18 11:44:56;;;;;;;7.55;3.10;;;;;;;17.89;33.56;104261.13;5035564;28;20033;-59
2022/03/18 11:47:26;;;;;;;7.35;2.80;;;;;;;18.04;33.36;104270.19;5025358;28;20103;-59